Jamison City, Pennsylvania
Current Conditions -  °F | °C
As of 2:15 AM on Sunday 26 Oct 2014 (Local Time) from KHZL Reporting Station
Broken Clouds Broken Clouds  
Wind Chill: 55°   Ceiling: 4100
Heat Index: 55°   Visibility: 10mi
Dew Point: 41°   Wind: 9mph
Humidity: 58%   Direction: 260°W
Pressure: 29.63"   Gusts: NA
Location:  41.2534°N, 76.3299°W
Report Text: KHZL 260615Z AUTO 26008KT 240V300 10SM BKN041 BKN050 13/05 A2963 RMK AO2
Loading
Personal Weather Stations






























Interactive Weather Map
Tropical Storm Tracking
New forecast layout! Learn more

10-Day Weather Forecast

Advertisements
Track Severe Weather on mobile